createdAt,value
2022-08-14T00:02:40.928Z,23.30
2022-08-14T00:06:25.897Z,23.20
2022-08-14T00:10:49.997Z,23.10
2022-08-14T00:14:17.458Z,23.00
2022-08-14T00:17:59.325Z,23.00
2022-08-14T00:21:41.157Z,22.90
2022-08-14T00:25:23.028Z,22.80
2022-08-14T00:29:04.876Z,22.70
2022-08-14T00:32:52.208Z,22.70
2022-08-14T00:36:48.260Z,22.60
2022-08-14T00:40:33.398Z,22.60
2022-08-14T00:44:27.563Z,22.50
2022-08-14T00:48:34.459Z,22.40
2022-08-14T00:52:18.592Z,22.30
2022-08-14T00:56:00.792Z,22.20
2022-08-14T00:59:49.217Z,22.10
2022-08-14T01:03:36.121Z,22.00
2022-08-14T01:07:21.322Z,21.90
2022-08-14T01:11:04.710Z,21.80
2022-08-14T01:14:46.673Z,21.80
2022-08-14T01:18:57.836Z,21.70
2022-08-14T01:22:45.991Z,21.60
2022-08-14T01:26:35.104Z,21.60
2022-08-14T01:30:25.964Z,21.50
2022-08-14T01:35:19.269Z,21.40
2022-08-14T01:38:13.144Z,21.40
2022-08-14T01:42:00.944Z,21.30
2022-08-14T01:45:48.984Z,21.20
2022-08-14T01:49:46.561Z,21.10
2022-08-14T01:53:45.670Z,21.00
2022-08-14T01:57:49.463Z,20.90
2022-08-14T02:01:31.269Z,20.90
2022-08-14T02:05:14.363Z,20.90
2022-08-14T02:08:56.979Z,20.80
2022-08-14T02:12:38.946Z,20.70
2022-08-14T02:16:26.350Z,20.60
2022-08-14T02:20:08.780Z,20.60
2022-08-14T02:23:53.732Z,20.50
2022-08-14T02:28:21.920Z,20.40
2022-08-14T02:31:43.916Z,20.30
2022-08-14T02:35:32.673Z,20.20
2022-08-14T02:39:16.244Z,20.10
2022-08-14T02:43:03.869Z,20.00
2022-08-14T02:46:49.669Z,19.90
2022-08-14T02:50:33.699Z,19.90
2022-08-14T02:54:19.638Z,19.80
2022-08-14T02:58:03.375Z,19.70
2022-08-14T03:01:51.175Z,19.60
2022-08-14T03:05:41.579Z,19.50
2022-08-14T03:09:24.204Z,19.40
2022-08-14T03:13:06.406Z,19.40
2022-08-14T03:17:01.309Z,19.30
2022-08-14T03:20:43.257Z,19.30
2022-08-14T03:24:28.313Z,19.20
2022-08-14T03:28:14.390Z,19.10
2022-08-14T03:32:11.251Z,19.00
2022-08-14T03:37:28.368Z,19.00
2022-08-14T03:39:55.612Z,18.90
2022-08-14T03:43:37.491Z,18.80
2022-08-14T03:47:20.874Z,18.80
2022-08-14T03:51:02.745Z,18.70
2022-08-14T03:54:52.631Z,18.60
2022-08-14T03:58:36.600Z,18.60
2022-08-14T04:02:32.901Z,18.50
2022-08-14T04:06:22.266Z,18.40
2022-08-14T04:10:10.355Z,18.30
2022-08-14T04:13:52.524Z,18.30
2022-08-14T04:17:34.383Z,18.20
2022-08-14T04:21:18.133Z,18.20
2022-08-14T04:25:04.924Z,18.10
2022-08-14T04:29:08.053Z,18.00
2022-08-14T04:32:57.475Z,18.00
2022-08-14T04:37:07.304Z,17.90
2022-08-14T04:41:08.622Z,17.90
2022-08-14T04:44:52.508Z,17.90
2022-08-14T04:48:43.497Z,17.80
2022-08-14T04:52:25.819Z,17.80
2022-08-14T04:56:30.043Z,17.70
2022-08-14T05:00:16.369Z,17.70
2022-08-14T05:04:00.414Z,17.60
2022-08-14T05:07:54.683Z,17.50
2022-08-14T05:11:44.259Z,17.50
2022-08-14T05:15:29.540Z,17.40
2022-08-14T05:19:24.964Z,17.40
2022-08-14T05:23:11.046Z,17.40
2022-08-14T05:26:53.471Z,17.40
2022-08-14T05:30:35.646Z,17.30
2022-08-14T05:34:17.660Z,17.30
2022-08-14T05:38:01.334Z,17.30
2022-08-14T05:41:54.284Z,17.20
2022-08-14T05:45:37.126Z,17.20
2022-08-14T05:49:18.958Z,17.20
2022-08-14T05:53:01.194Z,17.20
2022-08-14T05:56:43.367Z,17.20
2022-08-14T06:00:31.683Z,17.20
2022-08-14T06:04:18.905Z,17.20
2022-08-14T06:08:01.685Z,17.20
2022-08-14T06:11:50.340Z,17.20
2022-08-14T06:15:34.669Z,17.30
2022-08-14T06:19:19.159Z,17.30
2022-08-14T06:23:01.741Z,17.40
2022-08-14T06:26:43.995Z,17.50
2022-08-14T06:30:46.289Z,17.50
2022-08-14T06:35:11.246Z,17.60
2022-08-14T06:38:31.144Z,17.60
2022-08-14T06:42:32.257Z,17.70
2022-08-14T06:46:32.451Z,17.80
2022-08-14T06:50:21.802Z,17.80
2022-08-14T06:54:10.112Z,17.90
2022-08-14T06:57:52.577Z,18.00
2022-08-14T07:01:56.562Z,18.10
2022-08-14T07:05:55.247Z,18.10
2022-08-14T07:09:43.595Z,18.30
2022-08-14T07:13:32.878Z,18.40
2022-08-14T07:17:14.772Z,18.50
2022-08-14T07:21:00.562Z,18.70
2022-08-14T07:24:42.416Z,18.90
2022-08-14T07:28:29.962Z,19.00
2022-08-14T07:32:11.868Z,19.20
2022-08-14T07:36:26.703Z,19.30
2022-08-14T07:40:09.171Z,19.50
2022-08-14T07:43:55.779Z,19.60
2022-08-14T07:47:41.477Z,19.70
2022-08-14T07:51:23.923Z,19.90
2022-08-14T07:55:08.563Z,20.00
2022-08-14T07:58:51.744Z,20.20
2022-08-14T08:02:35.411Z,20.30
2022-08-14T08:06:22.567Z,20.50
2022-08-14T08:10:46.335Z,20.60
2022-08-14T08:14:31.196Z,20.70
2022-08-14T08:18:20.361Z,20.80
2022-08-14T08:22:09.234Z,20.90
2022-08-14T08:25:52.110Z,21.00
2022-08-14T08:29:35.972Z,21.20
2022-08-14T08:33:21.340Z,21.30
2022-08-14T08:37:07.311Z,21.40
2022-08-14T08:40:56.812Z,21.60
2022-08-14T08:44:41.980Z,21.80
2022-08-14T08:48:37.104Z,22.00
2022-08-14T08:52:25.165Z,22.30
2022-08-14T08:56:11.139Z,22.50
2022-08-14T09:00:25.711Z,22.60
2022-08-14T09:04:17.403Z,22.70
2022-08-14T09:08:33.340Z,22.80
2022-08-14T09:12:15.455Z,22.80
2022-08-14T09:15:58.046Z,22.90
2022-08-14T09:19:40.041Z,23.00
2022-08-14T09:23:27.460Z,23.10
2022-08-14T09:27:22.676Z,23.20
2022-08-14T09:31:08.601Z,23.30
2022-08-14T09:35:03.403Z,23.50
2022-08-14T09:38:53.801Z,23.60
2022-08-14T09:43:07.196Z,23.70
2022-08-14T09:46:56.702Z,23.90
2022-08-14T09:50:56.887Z,24.20
2022-08-14T09:54:48.022Z,24.80
2022-08-14T09:58:39.181Z,25.90
2022-08-14T10:02:31.242Z,27.30
2022-08-14T10:06:19.449Z,28.80
2022-08-14T10:10:03.701Z,30.20
2022-08-14T10:14:34.635Z,31.60
2022-08-14T10:18:19.296Z,32.90
2022-08-14T10:23:15.472Z,34.10
2022-08-14T10:26:22.839Z,35.00
2022-08-14T10:30:22.595Z,36.00
2022-08-14T10:34:14.181Z,36.80
2022-08-14T10:38:00.713Z,37.60
2022-08-14T10:41:48.689Z,38.30
2022-08-14T10:45:42.015Z,38.80
2022-08-14T10:49:28.594Z,39.30
2022-08-14T10:53:10.578Z,39.90
2022-08-14T10:56:55.448Z,40.50
2022-08-14T11:00:39.446Z,41.00
2022-08-14T11:04:30.867Z,41.40
2022-08-14T11:08:15.496Z,41.80
2022-08-14T11:12:40.245Z,42.10
2022-08-14T11:16:01.820Z,42.40
2022-08-14T11:19:51.476Z,42.90
2022-08-14T11:23:40.889Z,43.40
2022-08-14T11:27:33.120Z,43.90
2022-08-14T11:31:23.824Z,44.30
2022-08-14T11:35:06.618Z,44.60
2022-08-14T11:38:48.496Z,44.70
2022-08-14T11:42:58.520Z,44.80
2022-08-14T11:46:37.479Z,44.90
2022-08-14T11:50:24.987Z,45.00
2022-08-14T11:54:19.669Z,45.30
2022-08-14T11:58:08.844Z,45.70
2022-08-14T12:01:51.024Z,46.30
2022-08-14T12:05:39.761Z,46.70
2022-08-14T12:09:32.431Z,46.90
2022-08-14T12:13:19.277Z,47.20
2022-08-14T12:17:11.877Z,47.40
2022-08-14T12:20:59.966Z,47.50
2022-08-14T12:24:49.450Z,47.60
2022-08-14T12:28:34.051Z,47.50
2022-08-14T12:32:43.374Z,47.40
2022-08-14T12:36:30.702Z,47.60
2022-08-14T12:40:15.562Z,47.80
2022-08-14T12:44:08.475Z,47.80
2022-08-14T12:48:01.289Z,47.90
2022-08-14T12:52:04.396Z,48.00
2022-08-14T12:56:18.368Z,48.30
2022-08-14T13:00:29.220Z,48.50
2022-08-14T13:04:16.445Z,48.60
2022-08-14T13:08:00.603Z,48.40
2022-08-14T13:11:46.219Z,47.90
2022-08-14T13:15:28.415Z,47.30
2022-08-14T13:19:16.682Z,46.70
2022-08-14T13:22:59.694Z,46.70
2022-08-14T13:26:51.449Z,47.10
2022-08-14T13:30:36.397Z,47.50
2022-08-14T13:34:24.772Z,47.90
2022-08-14T13:38:07.507Z,48.10
2022-08-14T13:41:57.573Z,47.70
2022-08-14T13:46:00.341Z,47.00
2022-08-14T13:49:57.130Z,47.00
2022-08-14T13:54:07.157Z,47.30
2022-08-14T13:58:02.903Z,47.50
2022-08-14T14:01:46.849Z,47.50
2022-08-14T14:05:52.600Z,47.30
2022-08-14T14:09:50.981Z,47.00
2022-08-14T14:13:36.125Z,46.20
2022-08-14T14:17:18.695Z,45.20
2022-08-14T14:21:02.441Z,44.20
2022-08-14T14:24:46.349Z,43.40
2022-08-14T14:28:31.485Z,43.10
2022-08-14T14:32:17.349Z,42.90
2022-08-14T14:36:04.984Z,42.70
2022-08-14T14:40:53.700Z,42.30
2022-08-14T14:43:54.298Z,42.10
2022-08-14T14:47:36.877Z,42.30
2022-08-14T14:51:19.456Z,42.00
2022-08-14T14:55:03.610Z,41.40
2022-08-14T14:58:46.253Z,40.90
2022-08-14T15:02:36.984Z,40.60
2022-08-14T15:06:19.480Z,40.30
2022-08-14T15:10:01.459Z,40.20
2022-08-14T15:13:53.184Z,40.10
2022-08-14T15:17:41.538Z,40.10
2022-08-14T15:21:24.411Z,39.90
2022-08-14T15:25:09.459Z,39.80
2022-08-14T15:29:02.764Z,39.70
2022-08-14T15:32:46.856Z,39.50
2022-08-14T15:36:29.864Z,39.40
2022-08-14T15:40:16.265Z,39.30
2022-08-14T15:44:04.769Z,39.20
2022-08-14T15:48:02.260Z,39.10
2022-08-14T15:51:45.899Z,39.10
2022-08-14T15:55:30.432Z,39.10
2022-08-14T15:59:13.228Z,39.00
2022-08-14T16:03:00.563Z,39.00
2022-08-14T16:06:42.420Z,39.00
2022-08-14T16:10:30.033Z,39.00
2022-08-14T16:14:12.508Z,39.00
2022-08-14T16:17:55.141Z,38.90
2022-08-14T16:21:39.641Z,38.60
2022-08-14T16:25:34.872Z,38.60
2022-08-14T16:29:17.639Z,38.50
2022-08-14T16:33:01.326Z,38.40
2022-08-14T16:36:50.855Z,38.20
2022-08-14T16:40:33.742Z,37.80
2022-08-14T16:44:37.944Z,37.60
2022-08-14T16:48:54.990Z,37.30
2022-08-14T16:52:44.812Z,36.90
2022-08-14T16:56:36.285Z,36.50
2022-08-14T17:00:29.337Z,36.30
2022-08-14T17:04:24.399Z,36.00
2022-08-14T17:08:31.781Z,35.80
2022-08-14T17:12:28.409Z,35.70
2022-08-14T17:16:25.365Z,35.60
2022-08-14T17:20:54.542Z,35.40
2022-08-14T17:24:58.510Z,35.20
2022-08-14T17:28:51.569Z,35.20
2022-08-14T17:32:55.713Z,35.10
2022-08-14T17:36:35.514Z,35.00
2022-08-14T17:40:20.857Z,34.90
2022-08-14T17:44:34.218Z,34.80
2022-08-14T17:49:13.763Z,34.70
2022-08-14T17:52:41.459Z,34.60
2022-08-14T17:56:26.603Z,34.50
2022-08-14T18:00:16.569Z,34.40
2022-08-14T18:04:05.354Z,34.20
2022-08-14T18:07:50.661Z,34.10
2022-08-14T18:11:50.853Z,34.00
2022-08-14T18:15:37.115Z,33.90
2022-08-14T18:19:22.025Z,33.70
2022-08-14T18:23:06.070Z,33.60
2022-08-14T18:26:50.080Z,33.50
2022-08-14T18:30:58.830Z,33.30
2022-08-14T18:34:50.996Z,33.20
2022-08-14T18:38:42.866Z,33.00
2022-08-14T18:42:30.352Z,32.80
2022-08-14T18:46:59.926Z,32.80
2022-08-14T18:50:27.495Z,32.60
2022-08-14T18:54:32.786Z,32.50
2022-08-14T18:58:27.429Z,32.30
2022-08-14T19:02:30.548Z,32.10
2022-08-14T19:06:16.505Z,32.00
2022-08-14T19:10:05.942Z,31.90
2022-08-14T19:13:51.518Z,31.80
2022-08-14T19:18:14.138Z,31.50
2022-08-14T19:21:55.827Z,31.40
2022-08-14T19:25:48.223Z,31.30
2022-08-14T19:29:38.000Z,31.10
2022-08-14T19:33:48.875Z,30.90
2022-08-14T19:37:52.374Z,30.80
2022-08-14T19:41:37.860Z,30.70
2022-08-14T19:45:23.659Z,30.50
2022-08-14T19:49:06.490Z,30.40
2022-08-14T19:52:48.394Z,30.20
2022-08-14T19:56:35.512Z,30.00
2022-08-14T20:00:28.083Z,29.90
2022-08-14T20:04:46.726Z,29.70
2022-08-14T20:10:59.682Z,29.50
2022-08-14T20:12:29.034Z,29.40
2022-08-14T20:16:21.213Z,29.20
2022-08-14T20:20:31.991Z,29.10
2022-08-14T20:24:30.791Z,29.00
2022-08-14T20:28:28.827Z,28.90
2022-08-14T20:32:14.750Z,28.80
2022-08-14T20:35:56.781Z,28.70
2022-08-14T20:39:54.285Z,28.50
2022-08-14T20:43:58.598Z,28.40
2022-08-14T20:47:55.001Z,28.40
2022-08-14T20:51:54.557Z,28.20
2022-08-14T20:55:45.425Z,28.10
2022-08-14T20:59:29.597Z,28.00
2022-08-14T21:03:57.444Z,27.90
2022-08-14T21:07:40.136Z,27.80
2022-08-14T21:11:26.026Z,27.70
2022-08-14T21:15:11.364Z,27.50
2022-08-14T21:19:00.148Z,27.40
2022-08-14T21:22:44.686Z,27.30
2022-08-14T21:26:33.243Z,27.30
2022-08-14T21:30:52.010Z,27.20
2022-08-14T21:34:34.559Z,27.20
2022-08-14T21:38:18.466Z,27.00
2022-08-14T21:42:00.619Z,26.90
2022-08-14T21:45:53.031Z,26.70
2022-08-14T21:49:39.114Z,26.50
2022-08-14T21:53:25.058Z,26.40
2022-08-14T21:57:15.500Z,26.30
2022-08-14T22:00:57.500Z,26.20
2022-08-14T22:04:41.537Z,26.10
2022-08-14T22:08:26.549Z,26.00
2022-08-14T22:12:10.696Z,25.90
2022-08-14T22:15:59.652Z,25.80
2022-08-14T22:19:54.403Z,25.70
2022-08-14T22:23:37.222Z,25.60
2022-08-14T22:27:21.317Z,25.50
2022-08-14T22:31:11.175Z,25.40
2022-08-14T22:35:00.126Z,25.50
2022-08-14T22:38:49.932Z,25.40
2022-08-14T22:42:35.553Z,25.40
2022-08-14T22:46:20.236Z,25.40
2022-08-14T22:50:30.757Z,25.30
2022-08-14T22:54:05.017Z,25.20
2022-08-14T22:57:46.862Z,25.20
2022-08-14T23:01:56.468Z,25.20
2022-08-14T23:05:54.476Z,25.20
2022-08-14T23:09:38.201Z,25.20
2022-08-14T23:13:22.411Z,25.10
2022-08-14T23:17:06.277Z,25.10
2022-08-14T23:20:54.097Z,24.90
2022-08-14T23:24:41.596Z,24.80
2022-08-14T23:28:33.940Z,24.70
2022-08-14T23:32:30.298Z,24.60
2022-08-14T23:36:31.964Z,24.50
2022-08-14T23:40:26.513Z,24.40
2022-08-14T23:44:12.651Z,24.30
2022-08-14T23:47:54.581Z,24.20
2022-08-14T23:51:38.668Z,24.10
2022-08-14T23:55:21.543Z,24.00
2022-08-14T23:59:04.203Z,23.90
